createdAt,value
2019-01-24T00:00:59.609Z,19.30
2019-01-24T00:02:57.989Z,19.10
2019-01-24T00:04:03.510Z,19.30
2019-01-24T00:06:01.902Z,17.60
2019-01-24T00:07:07.417Z,17.30
2019-01-24T00:09:05.796Z,17.70
2019-01-24T00:10:11.317Z,18.90
2019-01-24T00:12:09.734Z,17.00
2019-01-24T00:13:15.225Z,17.60
2019-01-24T00:15:13.605Z,17.60
2019-01-24T00:16:19.131Z,18.90
2019-01-24T00:18:17.542Z,18.60
2019-01-24T00:19:23.027Z,17.70
2019-01-24T00:21:21.399Z,18.50
2019-01-24T00:22:26.921Z,17.60
2019-01-24T00:24:25.327Z,17.70
2019-01-24T00:25:30.821Z,16.40
2019-01-24T00:27:30.052Z,17.20
2019-01-24T00:28:35.570Z,15.30
2019-01-24T00:30:33.972Z,15.40
2019-01-24T00:31:39.475Z,16.70
2019-01-24T00:33:37.850Z,16.80
2019-01-24T00:34:43.372Z,16.10
2019-01-24T00:36:41.768Z,16.10
2019-01-24T00:37:47.272Z,15.90
2019-01-24T00:39:45.651Z,15.80
2019-01-24T00:40:51.179Z,14.70
2019-01-24T00:42:49.567Z,17.00
2019-01-24T00:43:55.073Z,16.00
2019-01-24T00:45:53.452Z,15.10
2019-01-24T00:46:58.978Z,14.40
2019-01-24T00:48:57.379Z,15.80
2019-01-24T00:50:02.893Z,16.40
2019-01-24T00:52:01.265Z,15.60
2019-01-24T00:53:06.785Z,14.70
2019-01-24T00:55:05.194Z,14.50
2019-01-24T00:56:10.685Z,15.40
2019-01-24T00:58:09.065Z,14.30
2019-01-24T00:59:14.590Z,15.10
2019-01-24T01:01:12.997Z,15.50
2019-01-24T01:02:18.490Z,16.00
2019-01-24T01:04:16.873Z,14.10
2019-01-24T01:05:22.398Z,15.10
2019-01-24T01:07:20.785Z,15.00
2019-01-24T01:08:26.292Z,14.10
2019-01-24T01:10:24.670Z,15.10
2019-01-24T01:11:30.191Z,14.10
2019-01-24T01:13:28.589Z,15.10
2019-01-24T01:14:34.091Z,14.40
2019-01-24T01:16:32.477Z,14.70
2019-01-24T01:17:37.993Z,15.90
2019-01-24T01:19:36.386Z,15.20
2019-01-24T01:20:41.898Z,14.40
2019-01-24T01:22:40.280Z,15.00
2019-01-24T01:23:45.804Z,14.30
2019-01-24T01:25:44.200Z,14.40
2019-01-24T01:26:49.705Z,13.50
2019-01-24T01:28:48.092Z,13.70
2019-01-24T01:29:53.605Z,15.70
2019-01-24T01:31:52.008Z,14.10
2019-01-24T01:32:57.513Z,15.00
2019-01-24T01:34:55.892Z,15.10
2019-01-24T01:36:01.420Z,15.10
2019-01-24T01:37:59.816Z,15.80
2019-01-24T01:39:05.318Z,15.30
2019-01-24T01:41:03.698Z,13.50
2019-01-24T01:42:09.216Z,15.10
2019-01-24T01:44:08.480Z,14.40
2019-01-24T01:45:14.499Z,13.20
2019-01-24T01:47:12.350Z,14.60
2019-01-24T01:48:17.910Z,13.80
2019-01-24T01:50:16.279Z,14.60
2019-01-24T01:51:21.773Z,15.10
2019-01-24T01:53:20.160Z,16.10
2019-01-24T01:54:25.674Z,15.60
2019-01-24T01:56:24.091Z,15.00
2019-01-24T01:57:29.786Z,15.90
2019-01-24T01:59:28.450Z,14.90
2019-01-24T02:00:33.969Z,15.00
2019-01-24T02:02:32.379Z,15.10
2019-01-24T02:03:37.878Z,14.80
2019-01-24T02:05:36.274Z,14.30
2019-01-24T02:06:41.792Z,16.10
2019-01-24T02:08:40.191Z,15.20
2019-01-24T02:09:45.691Z,14.50
2019-01-24T02:11:44.068Z,15.70
2019-01-24T02:12:49.591Z,15.40
2019-01-24T02:14:47.995Z,16.00
2019-01-24T02:15:53.491Z,15.10
2019-01-24T02:17:51.872Z,14.70
2019-01-24T02:18:57.392Z,15.30
2019-01-24T02:20:55.795Z,14.30
2019-01-24T02:22:01.295Z,15.00
2019-01-24T02:24:00.522Z,15.20
2019-01-24T02:25:06.046Z,16.10
2019-01-24T02:27:05.046Z,15.30
2019-01-24T02:28:09.943Z,15.60
2019-01-24T02:30:08.324Z,14.90
2019-01-24T02:31:13.851Z,14.70
2019-01-24T02:33:12.260Z,13.90
2019-01-24T02:34:17.748Z,15.10
2019-01-24T02:36:16.135Z,14.60
2019-01-24T02:37:21.658Z,15.30
2019-01-24T02:39:20.055Z,15.50
2019-01-24T02:40:25.557Z,15.30
2019-01-24T02:42:23.931Z,17.70
2019-01-24T02:43:29.453Z,16.40
2019-01-24T02:45:27.861Z,15.40
2019-01-24T02:46:33.359Z,15.60
2019-01-24T02:48:32.369Z,15.60
2019-01-24T02:49:38.090Z,15.00
2019-01-24T02:51:36.308Z,16.30
2019-01-24T02:52:41.798Z,17.10
2019-01-24T02:54:40.181Z,15.10
2019-01-24T02:55:45.701Z,15.70
2019-01-24T02:57:44.092Z,15.60
2019-01-24T02:58:49.603Z,16.80
2019-01-24T03:00:47.988Z,15.70
2019-01-24T03:01:53.502Z,15.60
2019-01-24T03:03:51.897Z,15.10
2019-01-24T03:04:57.402Z,16.40
2019-01-24T03:06:55.790Z,15.40
2019-01-24T03:08:01.305Z,14.50
2019-01-24T03:09:59.697Z,15.30
2019-01-24T03:11:05.207Z,14.50
2019-01-24T03:13:04.466Z,14.50
2019-01-24T03:14:09.955Z,15.00
2019-01-24T03:16:08.340Z,14.30
2019-01-24T03:17:13.854Z,14.40
2019-01-24T03:19:13.100Z,14.50
2019-01-24T03:20:18.607Z,15.20
2019-01-24T03:22:16.990Z,14.40
2019-01-24T03:23:22.507Z,14.20
2019-01-24T03:25:20.915Z,15.00
2019-01-24T03:26:26.417Z,14.60
2019-01-24T03:28:24.796Z,14.90
2019-01-24T03:29:30.316Z,15.30
2019-01-24T03:31:28.735Z,15.20
2019-01-24T03:32:34.220Z,15.30
2019-01-24T03:34:32.596Z,15.40
2019-01-24T03:35:38.121Z,16.00
2019-01-24T03:37:36.530Z,15.60
2019-01-24T03:38:42.020Z,15.00
2019-01-24T03:40:40.398Z,16.40
2019-01-24T03:41:45.926Z,15.80
2019-01-24T03:43:44.328Z,13.80
2019-01-24T03:44:49.825Z,14.40
2019-01-24T03:46:48.211Z,15.90
2019-01-24T03:47:53.735Z,15.00
2019-01-24T03:49:52.142Z,14.80
2019-01-24T03:50:57.633Z,14.70
2019-01-24T03:52:56.023Z,15.10
2019-01-24T03:54:01.543Z,15.10
2019-01-24T03:55:59.931Z,14.00
2019-01-24T03:57:05.437Z,14.80
2019-01-24T03:59:03.826Z,14.20
2019-01-24T04:00:09.351Z,15.10
2019-01-24T04:02:07.758Z,15.80
2019-01-24T04:03:13.252Z,14.90
2019-01-24T04:05:12.212Z,15.90
2019-01-24T04:06:17.150Z,14.70
2019-01-24T04:08:15.552Z,15.10
2019-01-24T04:09:21.049Z,15.70
2019-01-24T04:11:19.433Z,13.80
2019-01-24T04:12:24.967Z,14.70
2019-01-24T04:14:23.353Z,15.30
2019-01-24T04:15:28.854Z,15.30
2019-01-24T04:17:27.237Z,14.70
2019-01-24T04:18:32.754Z,15.30
2019-01-24T04:20:31.154Z,16.20
2019-01-24T04:21:36.660Z,15.80
2019-01-24T04:23:35.037Z,14.50
2019-01-24T04:24:40.560Z,15.20
2019-01-24T04:26:38.956Z,15.00
2019-01-24T04:27:44.467Z,16.10
2019-01-24T04:29:42.854Z,16.20
2019-01-24T04:30:48.367Z,14.60
2019-01-24T04:32:46.756Z,15.70
2019-01-24T04:33:52.272Z,16.00
2019-01-24T04:35:51.516Z,14.70
2019-01-24T04:36:57.020Z,14.40
2019-01-24T04:38:56.007Z,15.40
2019-01-24T04:40:00.929Z,13.80
2019-01-24T04:41:59.308Z,15.60
2019-01-24T04:43:04.832Z,15.00
2019-01-24T04:45:03.243Z,16.10
2019-01-24T04:46:08.741Z,16.10
2019-01-24T04:48:07.115Z,13.50
2019-01-24T04:49:12.641Z,15.50
2019-01-24T04:51:11.060Z,15.00
2019-01-24T04:52:16.539Z,16.00
2019-01-24T04:54:14.924Z,13.40
2019-01-24T04:55:20.452Z,16.20
2019-01-24T04:57:18.844Z,15.30
2019-01-24T04:58:24.353Z,15.80
2019-01-24T05:00:22.756Z,15.40
2019-01-24T05:01:28.263Z,17.20
2019-01-24T05:03:26.650Z,15.80
2019-01-24T05:04:32.166Z,15.60
2019-01-24T05:06:30.553Z,15.00
2019-01-24T05:07:36.071Z,15.70
2019-01-24T05:09:34.444Z,14.70
2019-01-24T05:10:39.969Z,14.80
2019-01-24T05:12:38.364Z,15.20
2019-01-24T05:13:43.872Z,14.50
2019-01-24T05:15:42.251Z,16.40
2019-01-24T05:16:47.771Z,15.80
2019-01-24T05:18:46.188Z,15.50
2019-01-24T05:19:51.677Z,15.50
2019-01-24T05:21:50.054Z,15.40
2019-01-24T05:22:55.579Z,15.90
2019-01-24T05:24:53.980Z,15.80
2019-01-24T05:25:59.480Z,15.50
2019-01-24T05:27:57.860Z,14.90
2019-01-24T05:29:03.943Z,14.90
2019-01-24T05:31:01.787Z,15.90
2019-01-24T05:32:07.286Z,14.70
2019-01-24T05:34:05.666Z,15.70
2019-01-24T05:35:11.182Z,14.90
2019-01-24T05:37:09.578Z,14.80
2019-01-24T05:38:15.086Z,14.80
2019-01-24T05:40:13.466Z,14.30
2019-01-24T05:41:18.992Z,15.20
2019-01-24T05:43:18.235Z,14.20
2019-01-24T05:44:23.742Z,13.80
2019-01-24T05:46:22.120Z,14.60
2019-01-24T05:47:27.642Z,14.80
2019-01-24T05:49:26.033Z,14.40
2019-01-24T05:50:31.544Z,13.70
2019-01-24T05:52:29.922Z,14.90
2019-01-24T05:53:35.447Z,15.00
2019-01-24T05:55:33.850Z,14.20
2019-01-24T05:56:39.358Z,14.90
2019-01-24T05:58:37.737Z,14.80
2019-01-24T05:59:43.260Z,14.00
2019-01-24T06:01:41.660Z,14.90
2019-01-24T06:02:47.161Z,15.50
2019-01-24T06:04:45.571Z,14.30
2019-01-24T06:05:51.062Z,15.30
2019-01-24T06:07:49.455Z,15.80
2019-01-24T06:08:54.966Z,15.30
2019-01-24T06:10:53.371Z,14.70
2019-01-24T06:11:58.878Z,14.00
2019-01-24T06:13:57.255Z,14.70
2019-01-24T06:15:02.772Z,13.30
2019-01-24T06:17:01.194Z,16.20
2019-01-24T06:18:06.698Z,15.00
2019-01-24T06:20:05.927Z,16.20
2019-01-24T06:21:11.448Z,14.80
2019-01-24T06:23:11.143Z,14.00
2019-01-24T06:24:15.351Z,15.00
2019-01-24T06:26:13.736Z,14.50
2019-01-24T06:27:19.255Z,14.70
2019-01-24T06:29:17.646Z,15.30
2019-01-24T06:30:23.154Z,14.50
2019-01-24T06:32:21.537Z,15.30
2019-01-24T06:33:27.056Z,16.00
2019-01-24T06:35:25.469Z,15.40
2019-01-24T06:36:30.972Z,15.90
2019-01-24T06:38:29.347Z,14.50
2019-01-24T06:39:34.870Z,16.30
2019-01-24T06:41:33.256Z,15.80
2019-01-24T06:42:38.769Z,15.70
2019-01-24T06:44:37.152Z,15.20
2019-01-24T06:45:42.679Z,15.20
2019-01-24T06:47:41.063Z,15.20
2019-01-24T06:48:46.574Z,16.20
2019-01-24T06:50:44.954Z,16.80
2019-01-24T06:51:50.482Z,15.90
2019-01-24T06:53:48.873Z,15.70
2019-01-24T06:54:54.381Z,15.60
2019-01-24T06:56:52.765Z,16.90
2019-01-24T06:57:58.279Z,18.00
2019-01-24T06:59:56.686Z,16.30
2019-01-24T07:01:02.185Z,15.90
2019-01-24T07:03:00.567Z,16.90
2019-01-24T07:04:06.087Z,15.00
2019-01-24T07:06:04.481Z,16.40
2019-01-24T07:07:09.991Z,16.90
2019-01-24T07:09:08.374Z,17.80
2019-01-24T07:10:13.896Z,16.90
2019-01-24T07:12:12.306Z,15.50
2019-01-24T07:13:17.802Z,14.90
2019-01-24T07:15:16.181Z,16.20
2019-01-24T07:16:21.699Z,15.10
2019-01-24T07:18:20.099Z,16.20
2019-01-24T07:19:25.605Z,16.00
2019-01-24T07:21:23.987Z,16.30
2019-01-24T07:22:29.505Z,16.40
2019-01-24T07:24:27.893Z,15.50
2019-01-24T07:25:33.402Z,15.80
2019-01-24T07:27:31.787Z,15.60
2019-01-24T07:28:37.312Z,15.60
2019-01-24T07:30:35.698Z,15.10
2019-01-24T07:31:41.209Z,15.70
2019-01-24T07:33:39.605Z,15.40
2019-01-24T07:34:45.116Z,14.40
2019-01-24T07:36:43.497Z,17.20
2019-01-24T07:37:49.023Z,16.40
2019-01-24T07:39:47.411Z,14.70
2019-01-24T07:40:52.925Z,16.00
2019-01-24T07:42:51.303Z,16.10
2019-01-24T07:43:56.829Z,15.60
2019-01-24T07:45:55.799Z,15.90
2019-01-24T07:47:00.732Z,16.80
2019-01-24T07:48:59.127Z,16.40
2019-01-24T07:50:04.865Z,17.20
2019-01-24T07:52:03.011Z,15.60
2019-01-24T07:53:08.529Z,15.60
2019-01-24T07:55:06.925Z,16.10
2019-01-24T07:56:12.435Z,14.80
2019-01-24T07:58:10.812Z,16.70
2019-01-24T07:59:16.331Z,16.80
2019-01-24T08:01:14.728Z,17.30
2019-01-24T08:02:20.237Z,18.30
2019-01-24T08:04:18.631Z,17.00
2019-01-24T08:05:24.136Z,17.50
2019-01-24T08:07:22.518Z,16.20
2019-01-24T08:08:28.039Z,16.60
2019-01-24T08:10:26.444Z,17.50
2019-01-24T08:11:31.939Z,17.20
2019-01-24T08:13:30.330Z,18.70
2019-01-24T08:14:35.848Z,19.00
2019-01-24T08:16:34.242Z,16.40
2019-01-24T08:17:39.752Z,16.40
2019-01-24T08:19:38.159Z,16.00
2019-01-24T08:20:44.060Z,17.60
2019-01-24T08:22:42.045Z,17.80
2019-01-24T08:23:47.567Z,18.10
2019-01-24T08:25:45.972Z,18.40
2019-01-24T08:26:51.474Z,18.70
2019-01-24T08:28:50.700Z,18.50
2019-01-24T08:31:27.787Z,16.70
2019-01-24T08:32:33.310Z,18.40
2019-01-24T08:34:31.689Z,17.40
2019-01-24T08:35:37.198Z,16.20
2019-01-24T08:37:35.594Z,18.90
2019-01-24T08:38:41.104Z,17.90
2019-01-24T08:40:39.484Z,16.30
2019-01-24T08:41:45.007Z,17.20
2019-01-24T08:43:43.393Z,16.70
2019-01-24T08:44:48.904Z,16.50
2019-01-24T08:46:47.306Z,17.30
2019-01-24T08:47:52.810Z,17.10
2019-01-24T08:49:51.204Z,17.00
2019-01-24T08:50:56.717Z,16.60
2019-01-24T08:52:55.119Z,16.80
2019-01-24T08:54:00.626Z,16.50
2019-01-24T08:55:59.003Z,16.90
2019-01-24T08:57:04.522Z,18.10
2019-01-24T08:59:02.924Z,16.10
2019-01-24T09:00:08.430Z,16.20
2019-01-24T09:02:06.827Z,16.70
2019-01-24T09:03:12.331Z,16.90
2019-01-24T09:05:10.714Z,15.60
2019-01-24T09:06:22.393Z,15.30
2019-01-24T09:08:14.641Z,14.70
2019-01-24T09:09:20.133Z,14.80
2019-01-24T09:11:18.517Z,15.80
2019-01-24T09:12:30.095Z,16.40
2019-01-24T09:14:22.429Z,18.20
2019-01-24T09:15:29.246Z,16.50
2019-01-24T09:17:27.174Z,18.00
2019-01-24T09:18:32.700Z,16.00
2019-01-24T09:20:31.105Z,16.80
2019-01-24T09:21:36.614Z,18.10
2019-01-24T09:23:34.993Z,17.40
2019-01-24T09:24:40.522Z,17.50
2019-01-24T09:26:38.915Z,16.60
2019-01-24T09:27:44.427Z,16.80
2019-01-24T09:29:42.813Z,17.40
2019-01-24T09:30:48.331Z,16.30
2019-01-24T09:32:46.739Z,17.00
2019-01-24T09:33:52.229Z,17.30
2019-01-24T09:35:51.461Z,17.00
2019-01-24T09:36:56.985Z,16.90
2019-01-24T09:38:55.373Z,17.70
2019-01-24T09:40:00.887Z,17.30
2019-01-24T09:41:59.266Z,18.80
2019-01-24T09:43:04.788Z,19.30
2019-01-24T09:45:04.044Z,18.60
2019-01-24T09:46:09.541Z,18.60
2019-01-24T09:48:07.919Z,17.90
2019-01-24T09:49:13.448Z,18.20
2019-01-24T09:51:11.841Z,17.20
2019-01-24T09:52:17.348Z,18.50
2019-01-24T09:54:16.346Z,17.40
2019-01-24T09:55:21.255Z,17.50
2019-01-24T09:57:20.513Z,18.70
2019-01-24T09:58:26.004Z,18.00
2019-01-24T10:00:24.390Z,17.70
2019-01-24T10:01:29.906Z,18.80
2019-01-24T10:03:28.302Z,18.00
2019-01-24T10:04:33.811Z,17.20
2019-01-24T10:06:36.194Z,17.00
2019-01-24T10:07:37.714Z,16.80
2019-01-24T10:09:36.975Z,17.80
2019-01-24T10:10:42.472Z,16.20
2019-01-24T10:12:40.852Z,18.30
2019-01-24T10:13:46.377Z,18.20
2019-01-24T10:15:44.772Z,16.50
2019-01-24T10:16:50.282Z,16.10
2019-01-24T10:18:48.663Z,16.60
2019-01-24T10:19:54.186Z,17.60
2019-01-24T10:21:52.590Z,17.60
2019-01-24T10:22:58.091Z,17.20
2019-01-24T10:24:56.465Z,17.00
2019-01-24T10:26:01.989Z,17.30
2019-01-24T10:28:00.400Z,17.20
2019-01-24T10:29:05.893Z,18.00
2019-01-24T10:31:04.276Z,17.10
2019-01-24T10:32:09.797Z,18.30
2019-01-24T10:34:08.188Z,16.00
2019-01-24T10:35:13.708Z,16.20
2019-01-24T10:37:12.088Z,17.30
2019-01-24T10:38:17.612Z,16.40
2019-01-24T10:40:16.054Z,16.70
2019-01-24T10:41:21.544Z,16.40
2019-01-24T10:43:19.928Z,17.30
2019-01-24T10:44:25.448Z,17.80
2019-01-24T10:46:23.843Z,17.20
2019-01-24T10:47:29.355Z,16.10
2019-01-24T10:49:27.735Z,16.90
2019-01-24T10:50:33.261Z,17.10
2019-01-24T10:52:31.667Z,16.60
2019-01-24T10:53:37.160Z,17.00
2019-01-24T10:55:35.546Z,16.10
2019-01-24T10:56:41.065Z,16.30
2019-01-24T10:58:39.456Z,17.30
2019-01-24T10:59:44.976Z,18.60
2019-01-24T11:01:43.350Z,17.80
2019-01-24T11:02:48.880Z,17.40
2019-01-24T11:04:47.274Z,17.20
2019-01-24T11:05:52.789Z,17.10
2019-01-24T11:07:51.167Z,16.10
2019-01-24T11:08:56.696Z,16.00
2019-01-24T11:10:55.079Z,16.70
2019-01-24T11:12:00.595Z,16.20
2019-01-24T11:13:58.991Z,16.50
2019-01-24T11:15:04.496Z,16.20
2019-01-24T11:17:02.880Z,16.10
2019-01-24T11:18:08.401Z,17.10
2019-01-24T11:20:06.809Z,17.50
2019-01-24T11:21:12.308Z,16.20
2019-01-24T11:23:11.532Z,17.10
2019-01-24T11:24:17.060Z,15.80
2019-01-24T11:26:15.458Z,17.20
2019-01-24T11:27:20.963Z,16.30
2019-01-24T11:29:19.345Z,17.00
2019-01-24T11:30:24.871Z,16.60
2019-01-24T11:32:24.114Z,15.20
2019-01-24T11:33:29.622Z,15.70
2019-01-24T11:35:28.010Z,16.50
2019-01-24T11:36:33.535Z,16.60
2019-01-24T11:38:31.936Z,18.20
2019-01-24T11:39:37.454Z,16.90
2019-01-24T11:41:35.864Z,17.10
2019-01-24T11:42:41.361Z,15.80
2019-01-24T11:44:39.751Z,16.80
2019-01-24T11:45:45.263Z,16.90
2019-01-24T11:47:43.684Z,17.90
2019-01-24T11:48:49.170Z,16.70
2019-01-24T11:50:47.556Z,15.20
2019-01-24T11:51:53.082Z,16.40
2019-01-24T11:53:53.147Z,15.70
2019-01-24T11:54:56.990Z,15.00
2019-01-24T11:56:55.370Z,18.00
2019-01-24T11:58:00.895Z,17.90
2019-01-24T11:59:59.290Z,15.70
2019-01-24T12:01:04.809Z,17.00
2019-01-24T12:03:03.180Z,16.40
2019-01-24T12:04:08.704Z,17.30
2019-01-24T12:06:07.102Z,15.00
2019-01-24T12:07:12.612Z,15.80
2019-01-24T12:10:42.563Z,17.80
2019-01-24T12:11:48.074Z,17.10
2019-01-24T12:13:46.456Z,17.30
2019-01-24T12:14:51.980Z,17.80
2019-01-24T12:16:50.375Z,17.20
2019-01-24T12:17:55.888Z,17.10
2019-01-24T12:19:54.273Z,17.30
2019-01-24T12:20:59.799Z,19.60
2019-01-24T12:22:58.194Z,18.00
2019-01-24T12:24:03.708Z,17.50
2019-01-24T12:26:02.123Z,19.30
2019-01-24T12:27:07.618Z,17.50
2019-01-24T12:29:06.006Z,17.30
2019-01-24T12:30:11.527Z,17.30
2019-01-24T12:32:09.936Z,16.80
2019-01-24T12:33:15.445Z,16.90
2019-01-24T12:35:13.836Z,17.60
2019-01-24T12:36:19.533Z,17.10
2019-01-24T12:38:17.757Z,17.30
2019-01-24T12:39:23.264Z,17.30
2019-01-24T12:41:21.652Z,17.90
2019-01-24T12:42:27.185Z,17.90
2019-01-24T12:44:25.596Z,17.20
2019-01-24T12:45:31.154Z,17.00
2019-01-24T12:47:30.338Z,18.00
2019-01-24T12:48:35.859Z,16.70
2019-01-24T12:50:34.298Z,15.90
2019-01-24T12:51:39.802Z,15.50
2019-01-24T12:53:38.198Z,18.50
2019-01-24T12:54:43.712Z,18.30
2019-01-24T12:56:42.098Z,17.40
2019-01-24T12:57:47.620Z,18.60
2019-01-24T12:59:46.019Z,19.10
2019-01-24T13:00:51.525Z,19.00
2019-01-24T13:02:49.908Z,18.20
2019-01-24T13:03:55.429Z,17.90
2019-01-24T13:05:53.832Z,17.80
2019-01-24T13:06:59.349Z,17.30
2019-01-24T13:08:57.749Z,16.30
2019-01-24T13:10:03.249Z,16.90
2019-01-24T13:12:01.638Z,16.10
2019-01-24T13:13:07.174Z,16.50
2019-01-24T13:15:05.560Z,17.20
2019-01-24T13:16:11.069Z,18.50
2019-01-24T13:18:09.458Z,17.80
2019-01-24T13:19:14.982Z,21.80
2019-01-24T13:21:13.374Z,20.70
2019-01-24T13:22:19.441Z,19.30
2019-01-24T13:24:17.278Z,21.80
2019-01-24T13:25:22.788Z,21.20
2019-01-24T13:27:21.173Z,17.60
2019-01-24T13:28:26.695Z,17.90
2019-01-24T13:30:25.101Z,19.70
2019-01-24T13:31:30.602Z,17.80
2019-01-24T13:33:29.846Z,18.40
2019-01-24T13:34:35.357Z,17.40
2019-01-24T13:36:33.744Z,19.00
2019-01-24T13:37:39.264Z,19.50
2019-01-24T13:39:37.677Z,16.80
2019-01-24T13:40:43.178Z,15.80
2019-01-24T13:42:41.562Z,16.30
2019-01-24T13:43:47.085Z,15.90
2019-01-24T13:45:45.485Z,17.10
2019-01-24T13:46:50.995Z,17.10
2019-01-24T13:48:49.398Z,18.10
2019-01-24T13:49:54.900Z,17.80
2019-01-24T13:51:53.284Z,16.90
2019-01-24T13:52:58.811Z,21.40
2019-01-24T13:54:57.202Z,16.60
2019-01-24T13:56:02.710Z,17.70
2019-01-24T13:58:01.094Z,17.30
2019-01-24T13:59:06.618Z,17.30
2019-01-24T14:01:05.012Z,17.70
2019-01-24T14:02:10.522Z,17.00
2019-01-24T14:04:08.913Z,16.20
2019-01-24T14:05:14.421Z,16.50
2019-01-24T14:07:12.808Z,15.30
2019-01-24T14:08:18.321Z,16.20
2019-01-24T14:10:16.731Z,17.60
2019-01-24T14:11:22.229Z,18.10
2019-01-24T14:13:20.612Z,15.70
2019-01-24T14:14:26.143Z,17.30
2019-01-24T14:16:24.544Z,16.70
2019-01-24T14:17:30.048Z,16.50
2019-01-24T14:19:28.433Z,15.20
2019-01-24T14:20:33.953Z,15.90
2019-01-24T14:22:32.347Z,16.20
2019-01-24T14:23:37.858Z,15.90
2019-01-24T14:25:36.246Z,17.20
2019-01-24T14:26:41.776Z,16.60
2019-01-24T14:28:40.162Z,16.20
2019-01-24T14:29:45.672Z,15.90
2019-01-24T14:31:44.078Z,18.70
2019-01-24T14:32:49.586Z,18.00
2019-01-24T14:34:47.970Z,16.50
2019-01-24T14:35:53.490Z,17.10
2019-01-24T14:37:51.887Z,17.70
2019-01-24T14:38:57.405Z,17.10
2019-01-24T14:40:55.798Z,16.90
2019-01-24T14:42:01.307Z,16.30
2019-01-24T14:43:59.699Z,15.60
2019-01-24T14:45:05.216Z,15.70
2019-01-24T14:47:03.620Z,16.60
2019-01-24T14:48:09.130Z,16.90
2019-01-24T14:50:07.521Z,18.50
2019-01-24T14:51:13.039Z,17.70
2019-01-24T14:53:11.438Z,16.20
2019-01-24T14:54:16.949Z,16.00
2019-01-24T14:56:15.360Z,14.70
2019-01-24T14:57:20.869Z,14.40
2019-01-24T14:59:19.246Z,16.20
2019-01-24T15:00:24.770Z,16.60
2019-01-24T15:02:23.171Z,16.50
2019-01-24T15:03:28.684Z,15.60
2019-01-24T15:05:27.075Z,14.80
2019-01-24T15:06:32.591Z,15.70
2019-01-24T15:08:31.002Z,15.60
2019-01-24T15:09:36.500Z,14.80
2019-01-24T15:11:34.890Z,13.70
2019-01-24T15:12:40.415Z,14.00
2019-01-24T15:14:38.811Z,13.40
2019-01-24T15:15:44.328Z,12.90
2019-01-24T15:17:42.705Z,13.30
2019-01-24T15:18:48.228Z,14.20
2019-01-24T15:20:46.642Z,13.90
2019-01-24T15:21:52.138Z,14.00
2019-01-24T15:23:51.368Z,14.80
2019-01-24T15:24:56.891Z,14.50
2019-01-24T15:26:55.304Z,14.10
2019-01-24T15:28:00.806Z,14.40
2019-01-24T15:29:59.208Z,14.80
2019-01-24T15:31:04.733Z,15.10
2019-01-24T15:33:03.128Z,15.20
2019-01-24T15:34:08.636Z,15.80
2019-01-24T15:36:07.052Z,16.00
2019-01-24T15:37:12.548Z,15.30
2019-01-24T15:39:11.022Z,16.30
2019-01-24T15:40:16.470Z,17.00
2019-01-24T15:42:14.877Z,18.10
2019-01-24T15:43:20.379Z,18.30
2019-01-24T15:45:18.761Z,17.90
2019-01-24T15:46:24.277Z,14.60
2019-01-24T15:48:22.682Z,15.00
2019-01-24T15:49:28.185Z,15.60
2019-01-24T15:51:26.569Z,16.10
2019-01-24T15:52:34.092Z,15.20
2019-01-24T15:54:30.498Z,15.50
2019-01-24T15:55:36.004Z,15.40
2019-01-24T15:57:34.394Z,15.30
2019-01-24T15:58:39.924Z,15.50
2019-01-24T16:00:38.320Z,14.10
2019-01-24T16:01:43.829Z,15.10
2019-01-24T16:03:42.224Z,15.70
2019-01-24T16:04:47.734Z,15.70
2019-01-24T16:06:46.120Z,15.30
2019-01-24T16:07:51.651Z,14.20
2019-01-24T16:09:50.036Z,13.80
2019-01-24T16:10:55.550Z,14.30
2019-01-24T16:12:53.938Z,13.00
2019-01-24T16:13:59.458Z,13.40
2019-01-24T16:15:58.652Z,14.30
2019-01-24T16:17:03.359Z,14.40
2019-01-24T16:19:02.605Z,14.20
2019-01-24T16:20:08.115Z,14.20
2019-01-24T16:22:06.501Z,13.50
2019-01-24T16:23:12.029Z,14.60
2019-01-24T16:25:10.426Z,13.90
2019-01-24T16:26:15.929Z,13.50
2019-01-24T16:28:14.311Z,15.60
2019-01-24T16:29:19.834Z,15.60
2019-01-24T16:31:18.232Z,16.70
2019-01-24T16:32:23.741Z,16.60
2019-01-24T16:34:22.977Z,14.10
2019-01-24T16:35:28.493Z,13.20
2019-01-24T16:37:26.885Z,15.10
2019-01-24T16:38:32.406Z,13.80
2019-01-24T16:40:30.810Z,14.60
2019-01-24T16:41:36.311Z,14.60
2019-01-24T16:43:34.689Z,14.20
2019-01-24T16:44:40.213Z,15.00
2019-01-24T16:46:39.106Z,13.40
2019-01-24T16:47:44.617Z,13.20
2019-01-24T16:49:43.000Z,13.50
2019-01-24T16:50:48.522Z,13.40
2019-01-24T16:52:46.921Z,12.90
2019-01-24T16:53:52.436Z,14.00
2019-01-24T16:55:50.808Z,14.70
2019-01-24T16:56:56.336Z,13.80
2019-01-24T16:58:54.722Z,13.80
2019-01-24T17:00:00.235Z,13.40
2019-01-24T17:01:58.641Z,13.40
2019-01-24T17:03:04.141Z,13.10
2019-01-24T17:05:02.526Z,14.10
2019-01-24T17:06:08.046Z,15.20
2019-01-24T17:08:06.456Z,14.00
2019-01-24T17:09:11.964Z,13.90
2019-01-24T17:11:10.377Z,15.20
2019-01-24T17:12:15.893Z,14.50
2019-01-24T17:14:14.370Z,14.50
2019-01-24T17:15:19.814Z,15.30
2019-01-24T17:17:18.212Z,13.00
2019-01-24T17:18:23.719Z,14.50
2019-01-24T17:20:22.105Z,15.00
2019-01-24T17:21:27.625Z,15.50
2019-01-24T17:23:26.027Z,16.40
2019-01-24T17:24:31.546Z,14.80
2019-01-24T17:26:29.927Z,15.40
2019-01-24T17:27:35.438Z,14.70
2019-01-24T17:29:33.826Z,14.40
2019-01-24T17:30:39.347Z,13.70
2019-01-24T17:32:37.740Z,13.80
2019-01-24T17:33:43.255Z,13.10
2019-01-24T17:35:41.625Z,13.90
2019-01-24T17:36:47.152Z,14.10
2019-01-24T17:38:45.552Z,14.40
2019-01-24T17:39:51.076Z,14.80
2019-01-24T17:41:49.468Z,16.60
2019-01-24T17:42:54.963Z,15.40
2019-01-24T17:44:53.344Z,14.70
2019-01-24T17:45:58.870Z,13.20
2019-01-24T17:47:57.312Z,13.60
2019-01-24T17:49:02.814Z,15.50
2019-01-24T17:51:01.239Z,14.50
2019-01-24T17:52:06.683Z,14.20
2019-01-24T17:54:05.062Z,14.00
2019-01-24T17:55:10.586Z,12.50
2019-01-24T17:57:09.058Z,13.00
2019-01-24T17:58:14.492Z,13.00
2019-01-24T18:00:13.744Z,15.10
2019-01-24T18:01:19.265Z,17.30
2019-01-24T18:03:17.674Z,15.90
2019-01-24T18:04:23.182Z,14.30
2019-01-24T18:06:21.618Z,13.40
2019-01-24T18:07:27.103Z,13.90
2019-01-24T18:09:25.474Z,14.00
2019-01-24T18:10:30.996Z,14.20
2019-01-24T18:12:29.392Z,13.70
2019-01-24T18:13:34.963Z,14.30
2019-01-24T18:15:33.328Z,14.60
2019-01-24T18:16:38.855Z,15.40
2019-01-24T18:18:38.000Z,13.60
2019-01-24T18:19:42.743Z,13.20
2019-01-24T18:21:41.155Z,14.70
2019-01-24T18:22:46.653Z,14.20
2019-01-24T18:24:45.035Z,14.00
2019-01-24T18:25:50.556Z,13.90
2019-01-24T18:27:49.019Z,14.40
2019-01-24T18:28:54.463Z,13.70
2019-01-24T18:30:52.846Z,14.20
2019-01-24T18:31:58.368Z,13.90
2019-01-24T18:33:56.785Z,14.60
2019-01-24T18:35:02.311Z,15.10
2019-01-24T18:37:00.692Z,15.30
2019-01-24T18:38:06.203Z,15.60
2019-01-24T18:40:04.601Z,14.40
2019-01-24T18:41:10.119Z,13.70
2019-01-24T18:43:08.494Z,13.20
2019-01-24T18:44:14.012Z,13.40
2019-01-24T18:46:12.420Z,15.30
2019-01-24T18:47:17.919Z,13.70
2019-01-24T18:49:16.312Z,15.20
2019-01-24T18:50:21.823Z,14.20
2019-01-24T18:52:20.213Z,15.10
2019-01-24T18:53:25.738Z,14.60
2019-01-24T18:55:24.140Z,15.30
2019-01-24T18:56:29.642Z,14.30
2019-01-24T18:58:28.026Z,13.90
2019-01-24T18:59:33.546Z,13.90
2019-01-24T19:01:31.943Z,14.40
2019-01-24T19:02:37.458Z,13.80
2019-01-24T19:04:35.837Z,14.60
2019-01-24T19:05:41.356Z,14.20
2019-01-24T19:07:39.772Z,13.70
2019-01-24T19:08:46.051Z,13.70
2019-01-24T19:10:43.641Z,13.10
2019-01-24T19:11:49.167Z,14.70
2019-01-24T19:13:47.561Z,14.90
2019-01-24T19:14:53.072Z,14.70
2019-01-24T19:16:51.464Z,13.70
2019-01-24T19:17:56.981Z,14.40
2019-01-24T19:19:55.396Z,15.10
2019-01-24T19:21:00.893Z,14.70
2019-01-24T19:22:59.274Z,14.80
2019-01-24T19:24:04.794Z,14.30
2019-01-24T19:26:03.207Z,14.60
2019-01-24T19:27:08.702Z,15.20
2019-01-24T19:29:07.083Z,13.30
2019-01-24T19:30:12.607Z,14.60
2019-01-24T19:32:11.004Z,13.70
2019-01-24T19:33:16.518Z,14.60
2019-01-24T19:35:14.897Z,13.80
2019-01-24T19:36:20.840Z,13.70
2019-01-24T19:38:19.309Z,13.80
2019-01-24T19:39:24.332Z,13.30
2019-01-24T19:41:22.737Z,14.00
2019-01-24T19:42:28.239Z,13.20
2019-01-24T19:44:26.628Z,13.90
2019-01-24T19:45:32.156Z,15.00
2019-01-24T19:47:30.571Z,14.40